Terminal Aerodrome Forecast
Issued by NWS

Home | Current Version | Previous Version | Text Only | Print | Product List | Glossary Off
Versions: 1 2 3 4 5 6 7 8 9 10 11 12 13 14 15 16 17 18 19 20 21 22 23 24

000
FTUS43 KMPX 220520
TAFAXN
TAF
KAXN 220520Z 2206/2306 33004KT 1/4SM FG VV003
     FM221600 31006KT 1 1/2SM BR OVC003
     FM221800 29006KT 4SM BR OVC004
     FM230100 29008KT 5SM BR OVC004=

USA.gov is the U.S. government's official web portal to all federal, state and local government web resources and services.